Aérodrome :
LOGIN :

S'inscrire | Disclaimer

   EN    FR    IT 

 










Légende :    VFR   VFR Marginal   IFR   IFR Intensif   IFR Très Intensif
Visi : 
Plafond : 
>= 8 km
>= 3000ft
5 à 8 km
1000 à 3000 ft
1500m à 5 km
500 à 1000 ft
800 à 1500m
200 à 500 ft
< 800m
< 200 ft
Symboles :   Orages  Brouillard  Fortes neiges  Fortes précipitations  Vent > 20 kt
SIGMETs :   Divers  Orages  Givrage  Turbulence  Onde Orograph.  Cendres Volcan.







- Altitude de l'aérodrome : 384 ft
- Code IATA : ESU


GMMI - Mogador Int.

DERNIER METAR :
  • 181800Z 32006KT 8000 NSC 23/16 Q1017 NOSIG

METARs EXPIRÉS :
  • 181700Z 32007KT 8000 NSC 25/16 Q1017 NOSIG

TAF TAF GMMI
Valide du 18 à 18h jusqu'au 20 à 00h UTC


181700Z 1818/1924 26006KT 8000 NSC
PROB40 1822/1906 VRB02KT 2000 BR OVC010
Pas de NOTAMs connus pour ce terrain.
1 SIGMET publié pour la FIR Casablanca (GMMM) :
 
Orages noyés dans la masse
GMMM SIGMET A1 VALID 181830/182030 GMMC
GMMM CASABLANCA FIR EMBD TS OBS WI N3356 W00437 - N3316 W00452 - N33 19 W00508 - N3401 W00455 TOP FL300 MOV NE INTSF=



MET'MAP, la Météo Aéronautique d'un coup d'oeil ! - Copyright ORBIFLY Décembre 2007 - Disclaimer

ORBIFLY MET'MAP TEAM :

Programmation & Développement : Alexandra Zaïnal
Conception & Développement : Baudouin d'Aumeries
Co-Programmation & Développement : Marc-Olivier Méhu
Soutien technique & logistique : Manuel Goepfert

Contact : metmap@orbifly.com




SOURCES & CREDITS :

   NOAA